sensor_id;sensor_type;location;lat;lon;timestamp;temperature;humidity
16313;DHT22;8265;52.622;13.296;2023-03-03T00:05:10;-0.70;89.70
16313;DHT22;8265;52.622;13.296;2023-03-03T00:10:31;-0.70;89.30
16313;DHT22;8265;52.622;13.296;2023-03-03T00:15:52;-0.50;88.20
16313;DHT22;8265;52.622;13.296;2023-03-03T00:26:34;-0.70;89.50
16313;DHT22;8265;52.622;13.296;2023-03-03T00:32:00;-0.90;90.50
16313;DHT22;8265;52.622;13.296;2023-03-03T00:38:16;-0.70;90.10
16313;DHT22;8265;52.622;13.296;2023-03-03T00:42:37;-0.50;88.80
16313;DHT22;8265;52.622;13.296;2023-03-03T00:47:58;-0.70;89.20
16313;DHT22;8265;52.622;13.296;2023-03-03T00:53:19;-1.00;90.60
16313;DHT22;8265;52.622;13.296;2023-03-03T00:58:40;-0.80;90.30
16313;DHT22;8265;52.622;13.296;2023-03-03T01:04:01;-0.90;90.20
16313;DHT22;8265;52.622;13.296;2023-03-03T01:09:22;-1.00;91.20
16313;DHT22;8265;52.622;13.296;2023-03-03T01:14:43;-1.00;90.80
16313;DHT22;8265;52.622;13.296;2023-03-03T01:20:05;-1.00;91.40
16313;DHT22;8265;52.622;13.296;2023-03-03T01:25:25;-1.00;91.70
16313;DHT22;8265;52.622;13.296;2023-03-03T01:30:46;-1.00;91.50
16313;DHT22;8265;52.622;13.296;2023-03-03T01:36:07;-1.10;91.60
16313;DHT22;8265;52.622;13.296;2023-03-03T01:41:28;-1.30;92.80
16313;DHT22;8265;52.622;13.296;2023-03-03T01:52:14;-1.20;92.60
16313;DHT22;8265;52.622;13.296;2023-03-03T01:57:32;-1.10;92.40
16313;DHT22;8265;52.622;13.296;2023-03-03T02:02:52;-1.30;91.80
16313;DHT22;8265;52.622;13.296;2023-03-03T02:08:14;-1.30;92.20
16313;DHT22;8265;52.622;13.296;2023-03-03T02:13:34;-1.40;92.90
16313;DHT22;8265;52.622;13.296;2023-03-03T02:18:55;-1.30;93.00
16313;DHT22;8265;52.622;13.296;2023-03-03T02:29:37;-1.40;93.70
16313;DHT22;8265;52.622;13.296;2023-03-03T02:34:58;-1.20;93.00
16313;DHT22;8265;52.622;13.296;2023-03-03T02:40:19;-1.30;92.90
16313;DHT22;8265;52.622;13.296;2023-03-03T02:45:43;-1.50;93.90
16313;DHT22;8265;52.622;13.296;2023-03-03T02:51:01;-1.50;93.60
16313;DHT22;8265;52.622;13.296;2023-03-03T02:56:22;-1.70;94.00
16313;DHT22;8265;52.622;13.296;2023-03-03T03:01:43;-1.60;94.10
16313;DHT22;8265;52.622;13.296;2023-03-03T03:07:04;-1.60;93.80
16313;DHT22;8265;52.622;13.296;2023-03-03T03:12:25;-1.60;93.50
16313;DHT22;8265;52.622;13.296;2023-03-03T03:17:46;-1.70;94.20
16313;DHT22;8265;52.622;13.296;2023-03-03T03:23:07;-1.60;94.40
16313;DHT22;8265;52.622;13.296;2023-03-03T03:28:28;-1.50;93.60
16313;DHT22;8265;52.622;13.296;2023-03-03T03:33:49;-1.50;93.90
16313;DHT22;8265;52.622;13.296;2023-03-03T03:39:10;-1.50;93.50
16313;DHT22;8265;52.622;13.296;2023-03-03T03:44:31;-1.70;93.80
16313;DHT22;8265;52.622;13.296;2023-03-03T03:49:52;-1.90;94.10
16313;DHT22;8265;52.622;13.296;2023-03-03T03:55:13;-1.90;94.80
16313;DHT22;8265;52.622;13.296;2023-03-03T04:00:34;-2.10;95.00
16313;DHT22;8265;52.622;13.296;2023-03-03T04:05:55;-2.10;95.20
16313;DHT22;8265;52.622;13.296;2023-03-03T04:11:16;-2.00;95.70
16313;DHT22;8265;52.622;13.296;2023-03-03T04:16:37;-2.10;95.70
16313;DHT22;8265;52.622;13.296;2023-03-03T04:21:58;-2.10;96.20
16313;DHT22;8265;52.622;13.296;2023-03-03T04:27:19;-2.10;95.90
16313;DHT22;8265;52.622;13.296;2023-03-03T04:32:40;-2.20;96.60
16313;DHT22;8265;52.622;13.296;2023-03-03T04:38:01;-2.10;97.10
16313;DHT22;8265;52.622;13.296;2023-03-03T04:43:22;-2.10;97.10
16313;DHT22;8265;52.622;13.296;2023-03-03T04:48:43;-2.00;96.90
16313;DHT22;8265;52.622;13.296;2023-03-03T04:54:04;-1.90;95.90
16313;DHT22;8265;52.622;13.296;2023-03-03T04:59:25;-1.80;95.50
16313;DHT22;8265;52.622;13.296;2023-03-03T05:04:46;-2.00;95.40
16313;DHT22;8265;52.622;13.296;2023-03-03T05:10:07;-2.10;95.80
16313;DHT22;8265;52.622;13.296;2023-03-03T05:15:28;-2.20;95.90
16313;DHT22;8265;52.622;13.296;2023-03-03T05:20:49;-2.10;95.90
16313;DHT22;8265;52.622;13.296;2023-03-03T05:26:10;-2.20;96.10
16313;DHT22;8265;52.622;13.296;2023-03-03T05:31:31;-2.20;96.20
16313;DHT22;8265;52.622;13.296;2023-03-03T05:36:52;-2.10;95.50
16313;DHT22;8265;52.622;13.296;2023-03-03T05:42:13;-2.10;96.30
16313;DHT22;8265;52.622;13.296;2023-03-03T05:47:34;-2.10;95.60
16313;DHT22;8265;52.622;13.296;2023-03-03T05:52:55;-2.10;96.20
16313;DHT22;8265;52.622;13.296;2023-03-03T05:58:16;-2.00;96.20
16313;DHT22;8265;52.622;13.296;2023-03-03T06:03:37;-2.10;95.60
16313;DHT22;8265;52.622;13.296;2023-03-03T06:08:58;-1.90;94.10
16313;DHT22;8265;52.622;13.296;2023-03-03T06:14:19;-2.10;94.60
16313;DHT22;8265;52.622;13.296;2023-03-03T06:19:40;-2.10;94.90
16313;DHT22;8265;52.622;13.296;2023-03-03T06:25:01;-2.10;94.80
16313;DHT22;8265;52.622;13.296;2023-03-03T06:30:22;-2.10;95.00
16313;DHT22;8265;52.622;13.296;2023-03-03T06:35:42;-1.80;95.10
16313;DHT22;8265;52.622;13.296;2023-03-03T06:41:04;-1.80;94.90
16313;DHT22;8265;52.622;13.296;2023-03-03T06:46:25;-1.80;94.70
16313;DHT22;8265;52.622;13.296;2023-03-03T06:51:45;-1.80;95.10
16313;DHT22;8265;52.622;13.296;2023-03-03T07:02:27;-1.60;94.30
16313;DHT22;8265;52.622;13.296;2023-03-03T07:07:48;-1.70;94.70
16313;DHT22;8265;52.622;13.296;2023-03-03T07:13:25;-1.70;94.40
16313;DHT22;8265;52.622;13.296;2023-03-03T07:18:48;-1.60;94.70
16313;DHT22;8265;52.622;13.296;2023-03-03T07:23:52;-1.60;94.70
16313;DHT22;8265;52.622;13.296;2023-03-03T07:29:31;-1.70;94.70
16313;DHT22;8265;52.622;13.296;2023-03-03T07:34:42;-1.60;94.70
16313;DHT22;8265;52.622;13.296;2023-03-03T07:39:54;-1.30;93.40
16313;DHT22;8265;52.622;13.296;2023-03-03T07:45:32;-1.30;93.50
16313;DHT22;8265;52.622;13.296;2023-03-03T07:50:36;-1.50;93.90
16313;DHT22;8265;52.622;13.296;2023-03-03T07:55:57;-1.30;93.60
16313;DHT22;8265;52.622;13.296;2023-03-03T08:12:07;-0.70;91.50
16313;DHT22;8265;52.622;13.296;2023-03-03T08:17:22;-0.70;90.60
16313;DHT22;8265;52.622;13.296;2023-03-03T08:22:42;-0.60;90.70
16313;DHT22;8265;52.622;13.296;2023-03-03T08:28:03;-0.40;90.40
16313;DHT22;8265;52.622;13.296;2023-03-03T08:33:24;-0.40;89.60
16313;DHT22;8265;52.622;13.296;2023-03-03T08:38:45;-0.40;89.60
16313;DHT22;8265;52.622;13.296;2023-03-03T08:44:06;-0.40;89.70
16313;DHT22;8265;52.622;13.296;2023-03-03T08:49:27;-0.40;90.90
16313;DHT22;8265;52.622;13.296;2023-03-03T08:54:48;-0.50;91.20
16313;DHT22;8265;52.622;13.296;2023-03-03T09:00:10;-0.40;90.00
16313;DHT22;8265;52.622;13.296;2023-03-03T09:05:30;-0.20;89.30
16313;DHT22;8265;52.622;13.296;2023-03-03T09:10:51;-0.20;90.20
16313;DHT22;8265;52.622;13.296;2023-03-03T09:16:13;-0.20;90.00
16313;DHT22;8265;52.622;13.296;2023-03-03T09:21:33;-0.10;89.90
16313;DHT22;8265;52.622;13.296;2023-03-03T09:26:55;0.00;88.80
16313;DHT22;8265;52.622;13.296;2023-03-03T09:32:34;0.00;88.40
16313;DHT22;8265;52.622;13.296;2023-03-03T09:37:36;-0.10;89.20
16313;DHT22;8265;52.622;13.296;2023-03-03T09:53:49;0.30;88.70
16313;DHT22;8265;52.622;13.296;2023-03-03T10:20:49;0.50;88.90
16313;DHT22;8265;52.622;13.296;2023-03-03T10:31:12;0.70;88.00
16313;DHT22;8265;52.622;13.296;2023-03-03T10:36:30;0.70;88.40
16313;DHT22;8265;52.622;13.296;2023-03-03T10:42:04;0.80;88.30
16313;DHT22;8265;52.622;13.296;2023-03-03T11:08:48;1.20;86.40
16313;DHT22;8265;52.622;13.296;2023-03-03T11:24:48;1.50;85.70
16313;DHT22;8265;52.622;13.296;2023-03-03T11:30:33;1.60;85.70
16313;DHT22;8265;52.622;13.296;2023-03-03T11:35:22;1.60;85.30
16313;DHT22;8265;52.622;13.296;2023-03-03T11:40:50;1.60;85.20
16313;DHT22;8265;52.622;13.296;2023-03-03T11:46:10;1.70;84.90
16313;DHT22;8265;52.622;13.296;2023-03-03T11:56:42;1.90;85.40
16313;DHT22;8265;52.622;13.296;2023-03-03T12:18:19;2.10;83.60
16313;DHT22;8265;52.622;13.296;2023-03-03T12:28:57;1.80;85.50
16313;DHT22;8265;52.622;13.296;2023-03-03T12:39:49;2.00;85.10
16313;DHT22;8265;52.622;13.296;2023-03-03T12:55:52;2.20;85.10
16313;DHT22;8265;52.622;13.296;2023-03-03T13:01:07;2.30;84.30
16313;DHT22;8265;52.622;13.296;2023-03-03T13:06:28;2.30;84.30
16313;DHT22;8265;52.622;13.296;2023-03-03T13:11:57;2.20;84.60
16313;DHT22;8265;52.622;13.296;2023-03-03T13:17:07;2.50;84.50
16313;DHT22;8265;52.622;13.296;2023-03-03T13:27:39;2.90;82.70
16313;DHT22;8265;52.622;13.296;2023-03-03T13:38:25;2.40;85.10
16313;DHT22;8265;52.622;13.296;2023-03-03T13:49:24;2.80;83.50
16313;DHT22;8265;52.622;13.296;2023-03-03T13:59:48;2.70;83.70
16313;DHT22;8265;52.622;13.296;2023-03-03T14:05:22;2.60;83.80
16313;DHT22;8265;52.622;13.296;2023-03-03T14:15:57;2.60;83.90
16313;DHT22;8265;52.622;13.296;2023-03-03T14:21:15;2.90;83.70
16313;DHT22;8265;52.622;13.296;2023-03-03T14:26:29;3.00;83.00
16313;DHT22;8265;52.622;13.296;2023-03-03T14:31:50;3.00;82.80
16313;DHT22;8265;52.622;13.296;2023-03-03T14:37:28;2.90;83.40
16313;DHT22;8265;52.622;13.296;2023-03-03T14:42:39;3.00;83.30
16313;DHT22;8265;52.622;13.296;2023-03-03T14:47:53;3.30;82.30
16313;DHT22;8265;52.622;13.296;2023-03-03T14:58:39;3.30;82.20
16313;DHT22;8265;52.622;13.296;2023-03-03T15:04:03;3.10;82.80
16313;DHT22;8265;52.622;13.296;2023-03-03T15:14:41;3.30;82.80
16313;DHT22;8265;52.622;13.296;2023-03-03T15:25:25;3.30;83.30
16313;DHT22;8265;52.622;13.296;2023-03-03T15:30:46;3.30;83.00
16313;DHT22;8265;52.622;13.296;2023-03-03T15:52:32;3.30;83.30
16313;DHT22;8265;52.622;13.296;2023-03-03T15:57:48;3.50;82.70
16313;DHT22;8265;52.622;13.296;2023-03-03T16:03:01;3.50;83.00
16313;DHT22;8265;52.622;13.296;2023-03-03T16:08:10;3.30;83.40
16313;DHT22;8265;52.622;13.296;2023-03-03T16:13:45;3.10;84.40
16313;DHT22;8265;52.622;13.296;2023-03-03T16:19:52;3.00;85.00
16313;DHT22;8265;52.622;13.296;2023-03-03T16:35:25;2.80;85.40
16313;DHT22;8265;52.622;13.296;2023-03-03T16:45:35;2.80;85.80
16313;DHT22;8265;52.622;13.296;2023-03-03T16:56:19;2.20;86.90
16313;DHT22;8265;52.622;13.296;2023-03-03T17:07:14;1.60;88.90
16313;DHT22;8265;52.622;13.296;2023-03-03T17:17:42;1.20;90.50
16313;DHT22;8265;52.622;13.296;2023-03-03T17:28:33;0.80;91.60
16313;DHT22;8265;52.622;13.296;2023-03-03T17:39:14;1.00;91.70
16313;DHT22;8265;52.622;13.296;2023-03-03T18:00:31;1.40;91.50
16313;DHT22;8265;52.622;13.296;2023-03-03T18:06:03;1.40;91.20
16313;DHT22;8265;52.622;13.296;2023-03-03T18:16:45;1.70;90.80
16313;DHT22;8265;52.622;13.296;2023-03-03T18:22:12;1.90;90.20
16313;DHT22;8265;52.622;13.296;2023-03-03T18:32:46;2.00;89.50
16313;DHT22;8265;52.622;13.296;2023-03-03T18:37:56;2.10;89.40
16313;DHT22;8265;52.622;13.296;2023-03-03T18:48:48;2.20;88.90
16313;DHT22;8265;52.622;13.296;2023-03-03T18:54:03;2.30;88.70
16313;DHT22;8265;52.622;13.296;2023-03-03T19:04:42;2.30;89.00
16313;DHT22;8265;52.622;13.296;2023-03-03T19:10:03;2.40;88.30
16313;DHT22;8265;52.622;13.296;2023-03-03T19:20:57;2.40;88.10
16313;DHT22;8265;52.622;13.296;2023-03-03T19:31:31;2.40;88.20
16313;DHT22;8265;52.622;13.296;2023-03-03T19:47:44;2.70;87.50
16313;DHT22;8265;52.622;13.296;2023-03-03T20:14:27;2.90;85.30
16313;DHT22;8265;52.622;13.296;2023-03-03T20:25:14;3.10;82.80
16313;DHT22;8265;52.622;13.296;2023-03-03T20:35:50;2.90;80.30
16313;DHT22;8265;52.622;13.296;2023-03-03T20:41:22;3.00;79.10
16313;DHT22;8265;52.622;13.296;2023-03-03T20:46:28;3.00;79.10
16313;DHT22;8265;52.622;13.296;2023-03-03T20:57:04;3.00;79.40
16313;DHT22;8265;52.622;13.296;2023-03-03T21:02:40;2.90;79.60
16313;DHT22;8265;52.622;13.296;2023-03-03T21:08:03;3.00;79.30
16313;DHT22;8265;52.622;13.296;2023-03-03T21:13:26;2.90;79.30
16313;DHT22;8265;52.622;13.296;2023-03-03T21:18:25;2.90;79.60
16313;DHT22;8265;52.622;13.296;2023-03-03T21:23:46;2.70;80.10
16313;DHT22;8265;52.622;13.296;2023-03-03T21:29:07;2.80;80.00
16313;DHT22;8265;52.622;13.296;2023-03-03T21:34:29;2.80;80.00
16313;DHT22;8265;52.622;13.296;2023-03-03T21:40:09;2.80;80.00
16313;DHT22;8265;52.622;13.296;2023-03-03T21:45:11;2.80;80.10
16313;DHT22;8265;52.622;13.296;2023-03-03T21:50:31;2.90;80.20
16313;DHT22;8265;52.622;13.296;2023-03-03T21:55:52;2.80;80.40
16313;DHT22;8265;52.622;13.296;2023-03-03T22:01:13;2.70;80.70
16313;DHT22;8265;52.622;13.296;2023-03-03T22:06:34;2.70;80.80
16313;DHT22;8265;52.622;13.296;2023-03-03T22:11:55;2.70;80.90
16313;DHT22;8265;52.622;13.296;2023-03-03T22:17:16;2.70;81.00
16313;DHT22;8265;52.622;13.296;2023-03-03T22:22:37;2.70;80.80
16313;DHT22;8265;52.622;13.296;2023-03-03T22:27:58;2.50;81.20
16313;DHT22;8265;52.622;13.296;2023-03-03T22:33:19;2.40;81.80
16313;DHT22;8265;52.622;13.296;2023-03-03T22:38:40;2.40;81.90
16313;DHT22;8265;52.622;13.296;2023-03-03T22:44:01;2.40;81.60
16313;DHT22;8265;52.622;13.296;2023-03-03T22:49:22;2.40;81.80
16313;DHT22;8265;52.622;13.296;2023-03-03T22:54:43;2.30;82.20
16313;DHT22;8265;52.622;13.296;2023-03-03T23:00:05;2.20;82.70
16313;DHT22;8265;52.622;13.296;2023-03-03T23:05:25;2.00;83.30
16313;DHT22;8265;52.622;13.296;2023-03-03T23:10:46;1.80;84.00
16313;DHT22;8265;52.622;13.296;2023-03-03T23:16:07;1.60;84.70
16313;DHT22;8265;52.622;13.296;2023-03-03T23:21:28;1.60;85.00
16313;DHT22;8265;52.622;13.296;2023-03-03T23:26:49;1.50;85.50
16313;DHT22;8265;52.622;13.296;2023-03-03T23:32:10;1.40;86.10
16313;DHT22;8265;52.622;13.296;2023-03-03T23:37:31;1.30;86.40
16313;DHT22;8265;52.622;13.296;2023-03-03T23:42:52;1.40;86.40
16313;DHT22;8265;52.622;13.296;2023-03-03T23:48:13;1.10;87.30
16313;DHT22;8265;52.622;13.296;2023-03-03T23:53:34;1.00;87.90
16313;DHT22;8265;52.622;13.296;2023-03-03T23:58:55;1.00;88.30
